createdAt,value
2017-08-24T00:00:32.790Z,5.73
2017-08-24T00:03:00.358Z,5.90
2017-08-24T00:05:28.078Z,5.43
2017-08-24T00:07:55.653Z,6.33
2017-08-24T00:10:23.531Z,5.70
2017-08-24T00:12:51.099Z,5.20
2017-08-24T00:15:18.751Z,5.80
2017-08-24T00:17:46.409Z,6.67
2017-08-24T00:20:14.013Z,6.27
2017-08-24T00:22:42.233Z,5.60
2017-08-24T00:25:09.809Z,6.33
2017-08-24T00:27:37.360Z,6.00
2017-08-24T00:30:04.957Z,6.50
2017-08-24T00:32:32.531Z,7.00
2017-08-24T00:35:00.499Z,5.60
2017-08-24T00:37:28.087Z,6.27
2017-08-24T00:39:55.638Z,6.00
2017-08-24T00:42:23.232Z,6.10
2017-08-24T00:44:50.785Z,5.87
2017-08-24T00:47:18.703Z,5.50
2017-08-24T00:49:46.532Z,5.80
2017-08-24T00:52:14.106Z,6.67
2017-08-24T00:54:41.769Z,5.80
2017-08-24T00:57:09.337Z,5.90
2017-08-24T00:59:37.361Z,6.00
2017-08-24T01:02:04.916Z,6.03
2017-08-24T01:04:32.470Z,5.90
2017-08-24T01:07:00.061Z,6.47
2017-08-24T01:09:27.645Z,7.57
2017-08-24T01:11:55.604Z,6.20
2017-08-24T01:14:23.386Z,6.33
2017-08-24T01:16:50.958Z,5.90
2017-08-24T01:19:18.567Z,6.30
2017-08-24T01:21:46.207Z,5.73
2017-08-24T01:24:14.231Z,6.50
2017-08-24T01:26:41.816Z,6.10
2017-08-24T01:29:09.395Z,5.50
2017-08-24T01:31:37.056Z,6.30
2017-08-24T01:34:04.628Z,5.07
2017-08-24T01:36:32.495Z,5.80
2017-08-24T01:39:00.078Z,5.90
2017-08-24T01:41:27.652Z,5.50
2017-08-24T01:43:55.426Z,5.50
2017-08-24T01:46:23.756Z,6.33
2017-08-24T01:48:51.632Z,6.00
2017-08-24T01:51:19.226Z,5.07
2017-08-24T01:53:46.794Z,5.90
2017-08-24T01:56:14.418Z,5.93
2017-08-24T01:58:41.970Z,7.07
2017-08-24T02:01:09.943Z,6.47
2017-08-24T02:03:37.660Z,6.27
2017-08-24T02:06:05.194Z,6.83
2017-08-24T02:08:32.831Z,6.80
2017-08-24T02:11:00.396Z,6.60
2017-08-24T02:13:28.456Z,7.30
2017-08-24T02:15:56.049Z,6.30
2017-08-24T02:18:23.612Z,7.77
2017-08-24T02:20:51.272Z,6.80
2017-08-24T02:23:18.840Z,6.87
2017-08-24T02:25:46.777Z,7.93
2017-08-24T02:28:14.333Z,6.77
2017-08-24T02:30:42.706Z,7.23
2017-08-24T02:33:10.311Z,7.17
2017-08-24T02:35:37.871Z,6.27
2017-08-24T02:38:05.901Z,5.87
2017-08-24T02:40:33.453Z,6.50
2017-08-24T02:43:01.021Z,7.30
2017-08-24T02:45:28.621Z,7.07
2017-08-24T02:47:56.227Z,6.87
2017-08-24T02:50:24.209Z,5.40
2017-08-24T02:52:51.746Z,7.27
2017-08-24T02:55:19.290Z,7.03
2017-08-24T02:57:46.943Z,6.30
2017-08-24T03:00:14.753Z,6.90
2017-08-24T03:02:42.710Z,5.80
2017-08-24T03:05:10.319Z,6.60
2017-08-24T03:07:37.889Z,5.80
2017-08-24T03:10:05.496Z,5.60
2017-08-24T03:12:33.137Z,6.90
2017-08-24T03:15:01.068Z,6.13
2017-08-24T03:17:28.620Z,5.80
2017-08-24T03:19:56.223Z,6.13
2017-08-24T03:22:23.868Z,6.60
2017-08-24T03:24:51.551Z,5.60
2017-08-24T03:27:19.417Z,5.40
2017-08-24T03:29:46.988Z,7.17
2017-08-24T03:32:14.561Z,8.13
2017-08-24T03:34:42.190Z,7.30
2017-08-24T03:37:09.820Z,7.17
2017-08-24T03:39:37.847Z,6.87
2017-08-24T03:42:05.449Z,6.60
2017-08-24T03:44:33.025Z,6.80
2017-08-24T03:47:00.684Z,6.87
2017-08-24T03:49:28.253Z,7.20
2017-08-24T03:51:56.185Z,6.60
2017-08-24T03:54:23.773Z,6.27
2017-08-24T03:56:51.336Z,6.77
2017-08-24T03:59:18.978Z,6.33
2017-08-24T04:01:46.739Z,9.50
2017-08-24T04:04:14.845Z,6.80
2017-08-24T04:06:42.446Z,6.63
2017-08-24T04:09:10.069Z,6.97
2017-08-24T04:11:37.711Z,7.87
2017-08-24T04:14:05.293Z,6.80
2017-08-24T04:16:33.191Z,6.83
2017-08-24T04:19:00.763Z,6.90
2017-08-24T04:21:28.358Z,6.40
2017-08-24T04:23:55.992Z,6.63
2017-08-24T04:26:23.582Z,10.30
2017-08-24T04:28:51.496Z,10.70
2017-08-24T04:31:19.058Z,6.83
2017-08-24T04:33:46.671Z,6.30
2017-08-24T04:36:14.268Z,6.77
2017-08-24T04:38:41.845Z,7.50
2017-08-24T04:41:09.860Z,6.73
2017-08-24T04:43:37.442Z,8.20
2017-08-24T04:46:05.153Z,7.33
2017-08-24T04:48:33.414Z,6.00
2017-08-24T04:51:00.985Z,7.20
2017-08-24T04:53:29.166Z,7.17
2017-08-24T04:55:56.737Z,7.43
2017-08-24T04:58:24.284Z,7.33
2017-08-24T05:00:51.927Z,7.07
2017-08-24T05:03:19.523Z,7.40
2017-08-24T05:05:47.410Z,9.10
2017-08-24T05:08:14.982Z,12.80
2017-08-24T05:10:42.581Z,16.20
2017-08-24T05:13:10.204Z,11.07
2017-08-24T05:15:37.760Z,7.80
2017-08-24T05:18:05.752Z,8.47
2017-08-24T05:20:33.357Z,9.30
2017-08-24T05:23:00.953Z,8.53
2017-08-24T05:25:28.587Z,9.10
2017-08-24T05:27:56.228Z,8.00
2017-08-24T05:30:24.287Z,9.53
2017-08-24T05:32:51.892Z,9.10
2017-08-24T05:35:19.466Z,9.10
2017-08-24T05:37:47.105Z,8.97
2017-08-24T05:40:14.697Z,9.03
2017-08-24T05:42:42.361Z,8.20
2017-08-24T05:45:09.955Z,9.37
2017-08-24T05:47:37.562Z,8.37
2017-08-24T05:50:05.172Z,7.40
2017-08-24T05:52:33.217Z,8.20
2017-08-24T05:55:00.800Z,7.70
2017-08-24T05:57:28.560Z,7.33
2017-08-24T05:59:56.202Z,7.97
2017-08-24T06:02:23.799Z,6.40
2017-08-24T06:04:51.756Z,7.00
2017-08-24T06:07:19.350Z,8.13
2017-08-24T06:09:46.935Z,7.30
2017-08-24T06:12:14.520Z,7.40
2017-08-24T06:14:42.132Z,6.93
2017-08-24T06:17:10.044Z,6.63
2017-08-24T06:19:37.615Z,6.57
2017-08-24T06:22:05.181Z,6.67
2017-08-24T06:24:32.800Z,7.27
2017-08-24T06:27:00.358Z,7.30
2017-08-24T06:29:28.386Z,7.27
2017-08-24T06:31:55.951Z,7.20
2017-08-24T06:34:23.603Z,6.30
2017-08-24T06:36:51.795Z,7.37
2017-08-24T06:39:19.356Z,6.30
2017-08-24T06:41:47.517Z,7.10
2017-08-24T06:44:15.135Z,7.70
2017-08-24T06:46:42.729Z,6.03
2017-08-24T06:49:10.335Z,7.73
2017-08-24T06:51:37.991Z,6.60
2017-08-24T06:54:06.001Z,6.57
2017-08-24T06:56:33.580Z,7.40
2017-08-24T06:59:01.150Z,6.70
2017-08-24T07:01:28.748Z,7.60
2017-08-24T07:03:56.331Z,6.10
2017-08-24T07:06:24.328Z,6.40
2017-08-24T07:08:52.069Z,6.13
2017-08-24T07:11:19.664Z,6.60
2017-08-24T07:13:47.263Z,6.50
2017-08-24T07:16:14.836Z,6.60
2017-08-24T07:18:42.812Z,6.53
2017-08-24T07:21:10.411Z,6.20
2017-08-24T07:23:38.013Z,7.43
2017-08-24T07:26:05.631Z,7.53
2017-08-24T07:28:33.204Z,7.13
2017-08-24T07:31:01.058Z,5.90
2017-08-24T07:33:28.669Z,6.57
2017-08-24T07:35:56.225Z,5.00
2017-08-24T07:38:23.815Z,6.90
2017-08-24T07:40:52.364Z,6.40
2017-08-24T07:43:20.257Z,8.30
2017-08-24T07:45:47.826Z,6.33
2017-08-24T07:48:15.412Z,5.90
2017-08-24T07:50:43.000Z,5.20
2017-08-24T07:53:10.583Z,6.30
2017-08-24T07:55:38.554Z,5.10
2017-08-24T07:58:06.116Z,4.50
2017-08-24T08:00:33.722Z,4.80
2017-08-24T08:03:01.319Z,5.73
2017-08-24T08:05:28.961Z,5.07
2017-08-24T08:07:56.878Z,5.20
2017-08-24T08:10:24.573Z,5.57
2017-08-24T08:12:52.176Z,4.93
2017-08-24T08:15:19.793Z,5.13
2017-08-24T08:17:47.456Z,5.40
2017-08-24T08:20:15.368Z,5.10
2017-08-24T08:22:42.927Z,6.23
2017-08-24T08:25:10.508Z,5.77
2017-08-24T08:27:38.097Z,6.33
2017-08-24T08:30:05.866Z,4.73
2017-08-24T08:32:33.881Z,5.07
2017-08-24T08:35:01.924Z,4.13
2017-08-24T08:37:29.695Z,5.00
2017-08-24T08:39:57.380Z,5.00
2017-08-24T08:42:24.975Z,4.37
2017-08-24T08:44:53.032Z,5.67
2017-08-24T08:47:20.646Z,5.03
2017-08-24T08:49:48.236Z,6.47
2017-08-24T08:52:15.849Z,5.40
2017-08-24T08:54:43.415Z,7.10
2017-08-24T08:57:11.320Z,5.23
2017-08-24T08:59:38.887Z,5.90
2017-08-24T09:02:06.612Z,5.50
2017-08-24T09:04:34.208Z,4.80
2017-08-24T09:07:01.769Z,5.33
2017-08-24T09:09:30.213Z,5.97
2017-08-24T09:11:57.879Z,5.50
2017-08-24T09:14:25.478Z,5.30
2017-08-24T09:16:53.118Z,6.10
2017-08-24T09:19:20.695Z,4.77
2017-08-24T09:21:48.620Z,4.70
2017-08-24T09:24:16.186Z,5.60
2017-08-24T09:26:43.933Z,5.40
2017-08-24T09:29:11.556Z,5.63
2017-08-24T09:31:39.132Z,5.07
2017-08-24T09:34:07.082Z,4.80
2017-08-24T09:36:34.658Z,5.47
2017-08-24T09:39:02.226Z,5.17
2017-08-24T09:41:29.855Z,5.30
2017-08-24T09:43:57.431Z,6.40
2017-08-24T09:46:26.406Z,5.97
2017-08-24T09:48:53.991Z,5.70
2017-08-24T09:51:21.592Z,6.10
2017-08-24T09:53:49.201Z,6.00
2017-08-24T09:56:16.781Z,5.90
2017-08-24T09:58:44.716Z,6.00
2017-08-24T10:01:12.287Z,4.90
2017-08-24T10:03:39.862Z,4.93
2017-08-24T10:06:07.498Z,5.57
2017-08-24T10:08:35.116Z,4.53
2017-08-24T10:11:03.216Z,5.93
2017-08-24T10:13:30.782Z,5.27
2017-08-24T10:15:59.380Z,6.10
2017-08-24T10:18:26.996Z,6.03
2017-08-24T10:20:54.582Z,6.43
2017-08-24T10:23:22.572Z,6.50
2017-08-24T10:25:50.161Z,5.90
2017-08-24T10:28:17.713Z,6.20
2017-08-24T10:30:45.344Z,5.50
2017-08-24T10:33:13.082Z,4.83
2017-08-24T10:35:40.995Z,5.77
2017-08-24T10:38:08.565Z,5.27
2017-08-24T10:40:36.148Z,4.90
2017-08-24T10:43:03.815Z,5.20
2017-08-24T10:45:31.418Z,5.10
2017-08-24T10:47:59.341Z,6.00
2017-08-24T10:50:26.931Z,5.10
2017-08-24T10:52:54.517Z,5.10
2017-08-24T10:55:22.246Z,5.40
2017-08-24T10:57:49.896Z,5.77
2017-08-24T11:00:17.761Z,7.03
2017-08-24T11:02:45.370Z,5.80
2017-08-24T11:05:12.925Z,6.70
2017-08-24T11:07:40.570Z,6.33
2017-08-24T11:10:08.139Z,6.53
2017-08-24T11:12:36.374Z,6.20
2017-08-24T11:15:03.932Z,5.90
2017-08-24T11:17:31.485Z,7.27
2017-08-24T11:19:59.082Z,6.97
2017-08-24T11:22:26.645Z,5.97
2017-08-24T11:24:54.521Z,6.17
2017-08-24T11:27:22.114Z,6.10
2017-08-24T11:29:49.740Z,6.10
2017-08-24T11:32:17.383Z,6.90
2017-08-24T11:34:46.066Z,5.97
2017-08-24T11:37:14.073Z,6.60
2017-08-24T11:39:41.682Z,6.43
2017-08-24T11:42:09.236Z,6.30
2017-08-24T11:44:36.897Z,5.90
2017-08-24T11:47:04.573Z,6.43
2017-08-24T11:49:32.552Z,7.00
2017-08-24T11:52:00.120Z,7.33
2017-08-24T11:54:27.703Z,6.63
2017-08-24T11:56:55.447Z,6.13
2017-08-24T11:59:23.092Z,7.10
2017-08-24T12:01:51.088Z,6.23
2017-08-24T12:04:18.652Z,6.20
2017-08-24T12:06:46.216Z,5.70
2017-08-24T12:09:13.844Z,7.67
2017-08-24T12:11:41.475Z,7.10
2017-08-24T12:14:09.418Z,6.50
2017-08-24T12:16:36.979Z,8.53
2017-08-24T12:19:04.667Z,5.97
2017-08-24T12:21:32.284Z,6.60
2017-08-24T12:23:59.860Z,6.60
2017-08-24T12:26:27.886Z,6.37
2017-08-24T12:28:55.477Z,5.70
2017-08-24T12:31:23.105Z,6.20
2017-08-24T12:33:50.710Z,6.13
2017-08-24T12:36:18.277Z,5.93
2017-08-24T12:38:46.326Z,5.60
2017-08-24T12:41:13.896Z,6.60
2017-08-24T12:43:41.496Z,6.20
2017-08-24T12:46:09.101Z,6.10
2017-08-24T12:48:36.725Z,5.20
2017-08-24T12:51:04.765Z,6.40
2017-08-24T12:53:32.337Z,6.67
2017-08-24T12:56:00.093Z,5.63
2017-08-24T12:58:27.877Z,7.10
2017-08-24T13:00:55.434Z,6.50
2017-08-24T13:03:23.464Z,8.00
2017-08-24T13:05:51.050Z,9.90
2017-08-24T13:08:18.672Z,9.50
2017-08-24T13:10:46.396Z,7.23
2017-08-24T13:13:13.984Z,7.37
2017-08-24T13:15:42.595Z,6.87
2017-08-24T13:18:10.171Z,6.20
2017-08-24T13:20:37.752Z,7.17
2017-08-24T13:23:05.365Z,8.67
2017-08-24T13:25:32.976Z,6.20
2017-08-24T13:28:00.897Z,7.37
2017-08-24T13:30:28.516Z,8.60
2017-08-24T13:32:56.113Z,8.50
2017-08-24T13:35:23.712Z,8.07
2017-08-24T13:37:51.268Z,6.37
2017-08-24T13:40:19.040Z,7.07
2017-08-24T13:42:46.664Z,7.67
2017-08-24T13:45:14.734Z,6.10
2017-08-24T13:47:42.308Z,6.50
2017-08-24T13:50:09.868Z,6.63
2017-08-24T13:52:37.491Z,6.83
2017-08-24T13:55:05.067Z,7.10
2017-08-24T13:57:33.065Z,7.73
2017-08-24T14:00:00.627Z,7.53
2017-08-24T14:02:28.182Z,6.67
2017-08-24T14:04:55.924Z,8.00
2017-08-24T14:07:23.490Z,8.00
2017-08-24T14:09:51.542Z,5.33
2017-08-24T14:12:19.560Z,7.07
2017-08-24T14:14:47.145Z,7.10
2017-08-24T14:17:14.800Z,7.20
2017-08-24T14:19:42.362Z,7.60
2017-08-24T14:22:10.417Z,7.20
2017-08-24T14:24:38.015Z,8.57
2017-08-24T14:27:05.578Z,8.10
2017-08-24T14:29:33.262Z,7.73
2017-08-24T14:32:00.848Z,8.97
2017-08-24T14:34:28.740Z,8.03
2017-08-24T14:36:56.352Z,10.03
2017-08-24T14:39:23.945Z,10.20
2017-08-24T14:41:51.632Z,10.77
2017-08-24T14:44:19.192Z,10.43
2017-08-24T14:46:47.119Z,9.40
2017-08-24T14:49:14.720Z,8.87
2017-08-24T14:51:42.288Z,8.90
2017-08-24T14:54:10.055Z,8.70
2017-08-24T14:56:37.621Z,10.03
2017-08-24T14:59:05.617Z,10.20
2017-08-24T15:01:33.193Z,10.57
2017-08-24T15:04:01.331Z,9.33
2017-08-24T15:06:29.241Z,9.80
2017-08-24T15:08:56.904Z,9.27
2017-08-24T15:11:24.794Z,11.00
2017-08-24T15:13:52.357Z,10.43
2017-08-24T15:16:19.931Z,7.90
2017-08-24T15:18:47.563Z,10.07
2017-08-24T15:21:15.132Z,9.90
2017-08-24T15:23:43.050Z,10.07
2017-08-24T15:26:10.994Z,9.97
2017-08-24T15:28:39.669Z,10.50
2017-08-24T15:31:07.454Z,8.10
2017-08-24T15:33:35.045Z,9.70
2017-08-24T15:36:03.017Z,9.93
2017-08-24T15:38:30.589Z,11.70
2017-08-24T15:40:58.127Z,12.47
2017-08-24T15:43:25.786Z,12.47
2017-08-24T15:45:53.490Z,15.27
2017-08-24T15:48:21.506Z,17.40
2017-08-24T15:50:49.075Z,15.40
2017-08-24T15:53:16.680Z,18.40
2017-08-24T15:55:44.278Z,17.93
2017-08-24T15:58:11.878Z,17.13
2017-08-24T16:00:39.805Z,19.57
2017-08-24T16:03:07.401Z,17.23
2017-08-24T16:05:34.972Z,20.97
2017-08-24T16:08:02.618Z,20.70
2017-08-24T16:10:30.291Z,18.00
2017-08-24T16:12:58.328Z,21.17
2017-08-24T16:15:25.906Z,21.40
2017-08-24T16:17:53.527Z,20.20
2017-08-24T16:20:21.143Z,19.47
2017-08-24T16:22:48.736Z,21.37
2017-08-24T16:25:16.819Z,20.20
2017-08-24T16:27:44.392Z,20.90
2017-08-24T16:30:12.104Z,20.90
2017-08-24T16:32:39.723Z,25.00
2017-08-24T16:35:07.331Z,22.70
2017-08-24T16:37:35.626Z,21.70
2017-08-24T16:40:03.259Z,22.30
2017-08-24T16:42:31.065Z,23.20
2017-08-24T16:44:58.753Z,22.60
2017-08-24T16:47:26.390Z,21.30
2017-08-24T16:49:54.520Z,21.77
2017-08-24T16:52:22.121Z,22.00
2017-08-24T16:54:49.716Z,23.10
2017-08-24T16:57:17.409Z,24.73
2017-08-24T16:59:45.021Z,22.60
2017-08-24T17:02:13.097Z,22.83
2017-08-24T17:04:40.653Z,22.00
2017-08-24T17:07:08.224Z,20.00
2017-08-24T17:09:35.860Z,22.33
2017-08-24T17:12:03.701Z,22.00
2017-08-24T17:14:31.610Z,23.00
2017-08-24T17:17:00.289Z,22.00
2017-08-24T17:19:28.320Z,23.17
2017-08-24T17:21:56.346Z,22.10
2017-08-24T17:24:23.990Z,22.10
2017-08-24T17:26:52.031Z,54.63
2017-08-24T17:29:19.688Z,31.57
2017-08-24T17:31:47.422Z,23.63
2017-08-24T17:34:15.052Z,23.57
2017-08-24T17:36:42.661Z,24.20
2017-08-24T17:39:10.582Z,22.80
2017-08-24T17:41:38.203Z,22.03
2017-08-24T17:44:05.796Z,20.73
2017-08-24T17:46:33.499Z,23.20
2017-08-24T17:49:01.103Z,23.23
2017-08-24T17:51:29.103Z,22.90
2017-08-24T17:53:56.772Z,19.77
2017-08-24T17:56:24.377Z,22.10
2017-08-24T17:58:51.975Z,21.87
2017-08-24T18:01:19.589Z,21.30
2017-08-24T18:03:47.756Z,18.37
2017-08-24T18:06:15.330Z,18.83
2017-08-24T18:08:42.949Z,27.20
2017-08-24T18:11:11.422Z,37.27
2017-08-24T18:13:39.057Z,30.17
2017-08-24T18:16:07.156Z,27.80
2017-08-24T18:18:34.742Z,28.80
2017-08-24T18:21:02.313Z,23.00
2017-08-24T18:23:29.913Z,21.73
2017-08-24T18:25:57.485Z,21.40
2017-08-24T18:28:25.493Z,21.20
2017-08-24T18:30:53.066Z,22.80
2017-08-24T18:33:20.852Z,20.70
2017-08-24T18:35:48.504Z,24.07
2017-08-24T18:38:16.146Z,23.02
2017-08-24T18:40:44.324Z,28.37
2017-08-24T18:43:11.894Z,25.77
2017-08-24T18:45:39.494Z,24.13
2017-08-24T18:48:07.136Z,22.57
2017-08-24T18:50:34.850Z,34.60
2017-08-24T18:53:02.931Z,24.50
2017-08-24T18:55:30.565Z,33.03
2017-08-24T18:57:59.136Z,26.20
2017-08-24T19:00:26.822Z,22.80
2017-08-24T19:02:54.429Z,23.77
2017-08-24T19:05:22.387Z,24.47
2017-08-24T19:07:49.982Z,23.03
2017-08-24T19:10:17.585Z,25.70
2017-08-24T19:12:45.256Z,22.53
2017-08-24T19:15:12.875Z,25.37
2017-08-24T19:17:40.478Z,26.70
2017-08-24T19:20:08.630Z,22.97
2017-08-24T19:22:37.509Z,25.77
2017-08-24T19:25:05.095Z,21.30
2017-08-24T19:27:32.733Z,20.53
2017-08-24T19:30:00.361Z,25.47
2017-08-24T19:32:29.030Z,26.20
2017-08-24T19:34:56.902Z,25.00
2017-08-24T19:37:24.750Z,25.20
2017-08-24T19:39:53.324Z,27.93
2017-08-24T19:42:21.000Z,27.23
2017-08-24T19:44:48.620Z,23.43
2017-08-24T19:47:16.230Z,24.27
2017-08-24T19:49:43.831Z,23.93
2017-08-24T19:52:11.894Z,24.33
2017-08-24T19:54:40.213Z,27.10
2017-08-24T19:57:07.862Z,25.70
2017-08-24T19:59:36.700Z,26.40
2017-08-24T20:02:04.294Z,22.40
2017-08-24T20:04:32.746Z,26.00
2017-08-24T20:07:00.316Z,25.27
2017-08-24T20:09:28.309Z,25.17
2017-08-24T20:11:55.901Z,25.53
2017-08-24T20:14:24.358Z,25.60
2017-08-24T20:16:52.194Z,24.17
2017-08-24T20:19:21.057Z,23.47
2017-08-24T20:21:49.009Z,23.90
2017-08-24T20:24:16.593Z,22.30
2017-08-24T20:26:44.179Z,24.97
2017-08-24T20:29:12.739Z,24.63
2017-08-24T20:31:40.378Z,22.70
2017-08-24T20:34:08.061Z,24.70
2017-08-24T20:36:35.711Z,25.93
2017-08-24T20:39:04.247Z,24.40
2017-08-24T20:41:32.632Z,24.07
2017-08-24T20:44:00.354Z,26.80
2017-08-24T20:49:02.271Z,23.93
2017-08-24T20:51:29.845Z,25.93
2017-08-24T20:53:57.465Z,26.23
2017-08-24T20:56:25.096Z,26.97
2017-08-24T20:58:53.651Z,27.53
2017-08-24T21:01:21.601Z,26.73
2017-08-24T21:03:49.190Z,27.20
2017-08-24T21:06:17.153Z,27.53
2017-08-24T21:08:44.794Z,27.53
2017-08-24T21:11:13.218Z,26.07
2017-08-24T21:13:41.111Z,27.70
2017-08-24T21:16:08.733Z,26.20
2017-08-24T21:18:36.298Z,26.73
2017-08-24T21:21:03.931Z,25.20
2017-08-24T21:23:32.315Z,26.60
2017-08-24T21:26:00.693Z,51.97
2017-08-24T21:28:28.280Z,27.20
2017-08-24T21:30:55.896Z,30.70
2017-08-24T21:33:24.146Z,29.57
2017-08-24T21:35:51.795Z,29.40
2017-08-24T21:38:19.404Z,31.70
2017-08-24T21:40:47.470Z,28.17
2017-08-24T21:43:15.119Z,31.20
2017-08-24T21:45:43.074Z,31.30
2017-08-24T21:48:10.708Z,32.00
2017-08-24T21:50:38.275Z,30.33
2017-08-24T21:53:06.221Z,34.00
2017-08-24T21:55:33.779Z,30.47
2017-08-24T21:58:01.382Z,29.80
2017-08-24T22:00:29.190Z,32.20
2017-08-24T22:02:56.787Z,34.43
2017-08-24T22:05:24.891Z,34.57
2017-08-24T22:07:52.514Z,35.90
2017-08-24T22:10:20.111Z,34.83
2017-08-24T22:12:48.364Z,33.27
2017-08-24T22:15:15.968Z,36.90
2017-08-24T22:17:43.933Z,34.70
2017-08-24T22:20:11.564Z,33.97
2017-08-24T22:22:39.301Z,34.03
2017-08-24T22:25:06.958Z,34.40
2017-08-24T22:27:34.623Z,35.60
2017-08-24T22:30:03.270Z,38.20
2017-08-24T22:32:30.834Z,37.20
2017-08-24T22:34:58.396Z,36.70
2017-08-24T22:37:26.024Z,36.80
2017-08-24T22:39:53.641Z,36.07
2017-08-24T22:42:21.245Z,36.83
2017-08-24T22:44:48.879Z,36.13
2017-08-24T22:47:17.026Z,32.13
2017-08-24T22:49:44.604Z,35.37
2017-08-24T22:52:12.178Z,34.80
2017-08-24T22:57:48.080Z,38.00
2017-08-24T23:03:32.682Z,38.03
2017-08-24T23:06:00.302Z,37.40
2017-08-24T23:08:27.892Z,37.10
2017-08-24T23:10:55.538Z,37.27
2017-08-24T23:13:23.116Z,37.10
2017-08-24T23:15:50.756Z,39.67
2017-08-24T23:18:18.334Z,38.30
2017-08-24T23:20:46.479Z,38.33
2017-08-24T23:23:14.051Z,39.00
2017-08-24T23:25:41.613Z,37.87
2017-08-24T23:28:09.232Z,38.10
2017-08-24T23:30:36.820Z,37.07
2017-08-24T23:33:04.766Z,36.07
2017-08-24T23:35:32.317Z,37.57
2017-08-24T23:37:59.894Z,38.73
2017-08-24T23:40:27.520Z,40.10
2017-08-24T23:42:55.097Z,36.70
2017-08-24T23:45:23.308Z,39.27
2017-08-24T23:47:50.907Z,40.10
2017-08-24T23:50:18.640Z,37.57
2017-08-24T23:52:46.244Z,34.20
2017-08-24T23:55:13.832Z,34.97
2017-08-24T23:57:41.800Z,38.30
